Franklin, Michigan
Current Conditions -  °F | °C
As of 10:55 AM on Thursday 27 Nov 2014 (Local Time) from KVLL Reporting Station
Overcast Overcast  
Wind Chill: 25°   Ceiling: 2100
Heat Index: 33°   Visibility: 10mi
Dew Point: 24°   Wind: 10mph
Humidity: 68%   Direction: 280°W
Pressure: 30.16"   Gusts: NA
Location:  42.52°N, 83.31°W
Report Text: KVLL 271555Z AUTO 28009KT 10SM BKN021 OVC040 01/M05 A3016 RMK AO2 T00071046
Loading
Personal Weather Stations






























Interactive Weather Map New forecast layout! Learn more

10-Day Weather Forecast

Advertisements
Track Severe Weather on mobile